createdAt,value
2022-09-05T00:01:43.914Z,21.90
2022-09-05T00:04:24.588Z,21.80
2022-09-05T00:07:00.355Z,21.80
2022-09-05T00:09:51.953Z,21.80
2022-09-05T00:12:20.000Z,21.80
2022-09-05T00:15:16.597Z,21.80
2022-09-05T00:23:22.884Z,21.70
2022-09-05T00:24:20.227Z,21.70
2022-09-05T00:24:30.625Z,21.70
2022-09-05T00:27:00.227Z,21.70
2022-09-05T00:31:51.426Z,21.70
2022-09-05T00:32:56.835Z,21.60
2022-09-05T00:35:38.011Z,21.60
2022-09-05T00:38:15.442Z,21.60
2022-09-05T00:40:48.058Z,21.50
2022-09-05T00:43:21.029Z,21.40
2022-09-05T00:45:53.630Z,21.40
2022-09-05T00:48:30.527Z,21.40
2022-09-05T00:51:05.018Z,21.30
2022-09-05T00:53:41.664Z,21.30
2022-09-05T00:56:24.097Z,21.30
2022-09-05T00:59:40.824Z,21.20
2022-09-05T01:02:20.460Z,21.20
2022-09-05T01:04:55.652Z,21.10
2022-09-05T01:07:38.715Z,21.10
2022-09-05T01:10:24.561Z,21.00
2022-09-05T01:13:13.836Z,21.00
2022-09-05T01:15:51.543Z,20.90
2022-09-05T01:18:46.787Z,20.90
2022-09-05T01:21:38.063Z,20.80
2022-09-05T01:24:33.176Z,20.80
2022-09-05T01:28:41.273Z,20.80
2022-09-05T01:30:38.166Z,20.80
2022-09-05T01:33:15.617Z,20.70
2022-09-05T01:36:19.841Z,20.70
2022-09-05T01:40:12.289Z,20.70
2022-09-05T01:41:54.175Z,20.60
2022-09-05T01:44:42.778Z,20.60
2022-09-05T01:47:29.482Z,20.60
2022-09-05T01:50:13.331Z,20.50
2022-09-05T01:53:00.169Z,20.50
2022-09-05T01:56:04.900Z,20.50
2022-09-05T01:58:48.745Z,20.40
2022-09-05T02:01:32.343Z,20.40
2022-09-05T02:04:28.646Z,20.40
2022-09-05T02:07:30.170Z,20.30
2022-09-05T02:10:32.487Z,20.30
2022-09-05T02:13:12.399Z,20.20
2022-09-05T02:16:00.009Z,20.20
2022-09-05T02:18:46.374Z,20.10
2022-09-05T02:21:22.023Z,20.10
2022-09-05T02:23:55.621Z,20.10
2022-09-05T02:26:28.299Z,20.00
2022-09-05T02:29:02.394Z,20.00
2022-09-05T02:31:42.708Z,19.90
2022-09-05T02:34:18.583Z,19.90
2022-09-05T02:36:51.289Z,19.80
2022-09-05T02:45:02.200Z,19.80
2022-09-05T02:45:13.703Z,19.80
2022-09-05T02:45:28.800Z,19.80
2022-09-05T02:48:15.657Z,19.80
2022-09-05T02:57:24.512Z,19.80
2022-09-05T02:57:33.359Z,19.80
2022-09-05T02:57:39.466Z,19.80
2022-09-05T03:00:00.444Z,19.80
2022-09-05T03:02:32.294Z,19.70
2022-09-05T03:05:09.687Z,19.60
2022-09-05T03:07:51.982Z,19.60
2022-09-05T03:10:54.402Z,19.50
2022-09-05T03:13:58.775Z,19.50
2022-09-05T03:17:05.037Z,19.50
2022-09-05T03:20:03.027Z,19.40
2022-09-05T03:23:03.139Z,19.40
2022-09-05T03:26:00.361Z,19.30
2022-09-05T03:29:14.424Z,19.20
2022-09-05T03:32:19.614Z,19.30
2022-09-05T03:35:14.653Z,19.30
2022-09-05T03:37:59.763Z,19.20
2022-09-05T03:40:44.943Z,19.20
2022-09-05T03:43:43.487Z,19.20
2022-09-05T03:46:26.713Z,19.20
2022-09-05T03:50:32.520Z,19.20
2022-09-05T03:57:06.348Z,19.20
2022-09-05T03:57:25.011Z,19.20
2022-09-05T03:58:55.859Z,19.10
2022-09-05T04:03:00.049Z,19.10
2022-09-05T04:08:19.423Z,19.10
2022-09-05T04:08:24.042Z,19.10
2022-09-05T04:10:21.947Z,19.00
2022-09-05T04:12:55.482Z,19.10
2022-09-05T04:15:34.477Z,19.10
2022-09-05T04:18:05.155Z,19.00
2022-09-05T04:20:40.795Z,18.90
2022-09-05T04:23:25.137Z,18.90
2022-09-05T04:26:11.606Z,18.90
2022-09-05T04:28:56.400Z,18.90
2022-09-05T04:31:37.224Z,18.90
2022-09-05T04:34:18.595Z,18.90
2022-09-05T04:36:48.913Z,18.90
2022-09-05T04:39:28.027Z,18.90
2022-09-05T04:42:00.835Z,18.90
2022-09-05T04:44:33.318Z,18.90
2022-09-05T04:47:06.014Z,18.90
2022-09-05T04:49:38.697Z,18.90
2022-09-05T04:52:31.550Z,18.90
2022-09-05T04:55:03.675Z,18.80
2022-09-05T04:57:35.870Z,18.80
2022-09-05T05:06:05.976Z,18.80
2022-09-05T05:06:16.907Z,18.70
2022-09-05T05:06:18.133Z,18.80
2022-09-05T05:08:50.950Z,18.70
2022-09-05T05:17:29.878Z,18.70
2022-09-05T05:18:08.952Z,18.60
2022-09-05T05:18:14.225Z,18.70
2022-09-05T05:20:41.459Z,18.60
2022-09-05T05:23:07.875Z,18.70
2022-09-05T05:25:46.303Z,18.50
2022-09-05T05:28:24.537Z,18.60
2022-09-05T05:31:01.679Z,18.60
2022-09-05T05:33:33.474Z,18.60
2022-09-05T05:36:05.009Z,19.00
2022-09-05T05:38:41.005Z,18.70
2022-09-05T05:41:18.432Z,18.60
2022-09-05T05:43:47.688Z,18.70
2022-09-05T05:46:27.664Z,18.70
2022-09-05T05:49:04.843Z,18.70
2022-09-05T05:52:00.964Z,18.70
2022-09-05T05:54:38.043Z,18.70
2022-09-05T05:57:41.990Z,18.70
2022-09-05T06:00:24.495Z,18.70
2022-09-05T06:03:36.431Z,18.70
2022-09-05T06:06:22.457Z,18.70
2022-09-05T06:14:48.780Z,21.80
2022-09-05T06:15:00.800Z,18.80
2022-09-05T06:16:29.009Z,18.80
2022-09-05T06:19:25.419Z,21.00
2022-09-05T06:22:42.085Z,18.90
2022-09-05T06:25:52.777Z,18.90
2022-09-05T06:28:30.555Z,19.00
2022-09-05T06:31:33.680Z,19.10
2022-09-05T06:34:33.282Z,19.20
2022-09-05T06:37:11.628Z,19.30
2022-09-05T06:40:00.166Z,19.40
2022-09-05T06:42:43.394Z,19.50
2022-09-05T06:45:28.790Z,19.70
2022-09-05T06:48:04.110Z,19.70
2022-09-05T06:51:06.897Z,19.80
2022-09-05T06:54:10.505Z,20.00
2022-09-05T06:56:59.782Z,20.10
2022-09-05T07:00:04.545Z,20.30
2022-09-05T07:02:59.439Z,20.50
2022-09-05T07:05:39.736Z,20.60
2022-09-05T07:08:35.864Z,23.70
2022-09-05T07:11:16.349Z,20.90
2022-09-05T07:13:54.909Z,21.10
2022-09-05T07:16:38.320Z,21.40
2022-09-05T07:19:26.651Z,21.40
2022-09-05T07:22:48.001Z,21.60
2022-09-05T07:25:18.004Z,21.70
2022-09-05T07:28:25.882Z,21.90
2022-09-05T07:30:43.199Z,22.00
2022-09-05T07:33:12.636Z,22.20
2022-09-05T07:35:42.327Z,22.30
2022-09-05T07:38:16.105Z,22.50
2022-09-05T07:40:51.621Z,22.60
2022-09-05T07:43:23.997Z,22.80
2022-09-05T07:46:11.431Z,23.00
2022-09-05T07:48:44.932Z,23.20
2022-09-05T07:56:00.846Z,25.90
2022-09-05T07:57:08.067Z,24.30
2022-09-05T08:00:04.818Z,25.00
2022-09-05T08:02:33.442Z,23.90
2022-09-05T08:05:05.861Z,24.10
2022-09-05T08:07:49.519Z,24.20
2022-09-05T08:10:35.659Z,24.40
2022-09-05T08:13:23.639Z,25.10
2022-09-05T08:16:10.187Z,24.70
2022-09-05T08:18:49.801Z,24.90
2022-09-05T08:21:27.825Z,25.00
2022-09-05T08:24:13.862Z,26.50
2022-09-05T08:26:47.213Z,25.30
2022-09-05T08:29:26.272Z,25.40
2022-09-05T08:31:58.146Z,25.60
2022-09-05T08:34:44.592Z,25.70
2022-09-05T08:37:21.310Z,28.10
2022-09-05T08:40:02.444Z,25.90
2022-09-05T08:45:22.771Z,26.00
2022-09-05T08:46:41.609Z,26.20
2022-09-05T08:48:40.595Z,26.30
2022-09-05T08:51:20.022Z,26.40
2022-09-05T08:54:06.916Z,26.50
2022-09-05T08:56:44.600Z,26.70
2022-09-05T08:59:32.794Z,26.70
2022-09-05T09:02:47.620Z,26.90
2022-09-05T09:05:20.326Z,27.00
2022-09-05T09:07:56.495Z,27.10
2022-09-05T09:10:35.770Z,27.30
2022-09-05T09:13:25.633Z,27.40
2022-09-05T09:16:04.817Z,27.50
2022-09-05T09:18:42.557Z,27.70
2022-09-05T09:21:30.974Z,27.80
2022-09-05T09:24:07.934Z,27.90
2022-09-05T09:26:43.579Z,28.00
2022-09-05T09:29:14.350Z,28.10
2022-09-05T09:32:07.096Z,28.20
2022-09-05T09:34:53.388Z,28.30
2022-09-05T09:37:59.511Z,28.40
2022-09-05T09:40:52.272Z,28.50
2022-09-05T09:43:39.068Z,28.60
2022-09-05T09:46:20.791Z,28.80
2022-09-05T09:49:22.718Z,28.80
2022-09-05T09:52:20.540Z,30.50
2022-09-05T09:55:27.146Z,29.00
2022-09-05T09:58:09.567Z,29.20
2022-09-05T10:00:51.103Z,30.50
2022-09-05T10:10:33.963Z,29.40
2022-09-05T10:10:53.992Z,29.60
2022-09-05T10:10:55.125Z,32.30
2022-09-05T10:13:21.268Z,29.70
2022-09-05T10:16:32.418Z,29.80
2022-09-05T10:22:41.410Z,30.10
2022-09-05T10:25:24.682Z,30.30
2022-09-05T10:28:06.931Z,30.30
2022-09-05T10:32:24.549Z,30.30
2022-09-05T10:35:05.902Z,31.90
2022-09-05T10:36:32.719Z,30.50
2022-09-05T10:39:13.551Z,30.80
2022-09-05T10:41:49.844Z,30.70
2022-09-05T10:44:29.387Z,30.80
2022-09-05T10:47:07.806Z,32.60
2022-09-05T10:49:44.203Z,31.90
2022-09-05T10:52:19.409Z,31.10
2022-09-05T10:55:14.082Z,31.20
2022-09-05T10:57:54.275Z,31.30
2022-09-05T11:02:20.158Z,31.40
2022-09-05T11:03:45.134Z,31.40
2022-09-05T11:06:16.914Z,31.60
2022-09-05T11:09:04.405Z,31.60
2022-09-05T11:11:46.052Z,31.70
2022-09-05T11:14:35.068Z,31.80
2022-09-05T11:17:11.195Z,35.10
2022-09-05T11:19:43.679Z,32.00
2022-09-05T11:22:22.727Z,33.40
2022-09-05T11:24:55.956Z,32.20
2022-09-05T11:27:32.418Z,33.20
2022-09-05T11:30:05.467Z,32.30
2022-09-05T11:39:58.407Z,32.40
2022-09-05T11:40:02.701Z,32.40
2022-09-05T11:40:02.805Z,32.60
2022-09-05T11:42:34.031Z,32.70
2022-09-05T11:45:33.307Z,32.70
2022-09-05T11:48:53.589Z,32.80
2022-09-05T11:52:00.064Z,32.90
2022-09-05T11:54:57.907Z,32.90
2022-09-05T11:57:42.471Z,34.80
2022-09-05T12:00:31.637Z,33.00
2022-09-05T12:03:59.461Z,33.10
2022-09-05T12:07:00.525Z,33.10
2022-09-05T12:09:44.442Z,33.20
2022-09-05T12:12:38.895Z,35.30
2022-09-05T12:15:26.322Z,33.90
2022-09-05T12:18:19.575Z,33.20
2022-09-05T12:20:59.702Z,33.20
2022-09-05T12:23:53.758Z,34.60
2022-09-05T12:27:41.628Z,33.20
2022-09-05T12:29:29.662Z,33.20
2022-09-05T12:34:05.169Z,33.20
2022-09-05T12:36:10.696Z,33.30
2022-09-05T12:40:04.942Z,33.30
2022-09-05T12:41:36.333Z,33.30
2022-09-05T12:44:38.261Z,33.30
2022-09-05T12:46:26.821Z,33.30
2022-09-05T12:49:07.384Z,33.20
2022-09-05T12:51:46.896Z,33.20
2022-09-05T12:54:33.089Z,34.10
2022-09-05T13:02:14.667Z,34.90
2022-09-05T13:03:07.768Z,35.10
2022-09-05T13:03:10.867Z,34.00
2022-09-05T13:05:51.499Z,33.10
2022-09-05T13:08:22.325Z,33.10
2022-09-05T13:14:47.446Z,34.00
2022-09-05T13:14:58.509Z,33.00
2022-09-05T13:16:39.616Z,32.90
2022-09-05T13:19:19.802Z,34.80
2022-09-05T13:21:52.587Z,32.90
2022-09-05T13:24:27.610Z,33.00
2022-09-05T13:26:57.757Z,33.60
2022-09-05T13:29:32.281Z,32.70
2022-09-05T13:38:08.169Z,33.10
2022-09-05T13:38:19.753Z,31.50
2022-09-05T13:38:37.681Z,33.20
2022-09-05T13:41:00.340Z,33.10
2022-09-05T13:43:32.711Z,33.20
2022-09-05T13:46:11.317Z,33.20
2022-09-05T13:51:44.221Z,33.30
2022-09-05T13:54:36.308Z,33.30
2022-09-05T13:57:32.450Z,34.30
2022-09-05T14:00:53.051Z,33.50
2022-09-05T14:04:07.294Z,33.50
2022-09-05T14:10:21.957Z,33.60
2022-09-05T14:13:01.230Z,33.60
2022-09-05T14:15:42.754Z,33.50
2022-09-05T14:18:22.148Z,33.50
2022-09-05T14:21:15.415Z,33.40
2022-09-05T14:23:53.361Z,33.50
2022-09-05T14:26:29.209Z,33.60
2022-09-05T14:29:06.945Z,35.70
2022-09-05T14:37:38.940Z,33.70
2022-09-05T14:37:50.200Z,33.80
2022-09-05T14:38:09.350Z,34.00
2022-09-05T14:41:20.768Z,34.00
2022-09-05T14:44:27.650Z,34.10
2022-09-05T14:47:36.408Z,34.20
2022-09-05T14:50:27.743Z,34.30
2022-09-05T14:56:02.818Z,36.90
2022-09-05T15:02:42.571Z,34.70
2022-09-05T15:02:57.903Z,34.40
2022-09-05T15:04:34.801Z,34.50
2022-09-05T15:07:08.397Z,34.50
2022-09-05T15:12:18.910Z,34.50
2022-09-05T15:12:39.617Z,34.50
2022-09-05T15:15:20.188Z,34.40
2022-09-05T15:17:50.782Z,34.50
2022-09-05T15:20:35.692Z,34.50
2022-09-05T15:23:16.459Z,34.50
2022-09-05T15:25:47.369Z,34.60
2022-09-05T15:28:32.557Z,34.70
2022-09-05T15:31:02.592Z,34.90
2022-09-05T15:33:31.915Z,36.80
2022-09-05T15:36:01.349Z,37.40
2022-09-05T15:38:48.944Z,35.30
2022-09-05T15:41:22.823Z,35.30
2022-09-05T15:44:00.774Z,35.40
2022-09-05T15:46:41.177Z,35.40
2022-09-05T15:49:14.152Z,35.40
2022-09-05T15:51:48.018Z,35.30
2022-09-05T15:54:37.748Z,35.30
2022-09-05T15:57:15.249Z,35.20
2022-09-05T15:59:52.681Z,35.10
2022-09-05T16:02:24.261Z,35.10
2022-09-05T16:10:27.143Z,37.00
2022-09-05T16:10:38.385Z,35.00
2022-09-05T16:11:20.275Z,34.90
2022-09-05T16:13:39.686Z,36.10
2022-09-05T16:23:23.749Z,34.60
2022-09-05T16:23:34.921Z,34.70
2022-09-05T16:25:00.617Z,34.40
2022-09-05T16:27:51.855Z,34.40
2022-09-05T16:30:25.134Z,34.30
2022-09-05T16:33:01.869Z,34.10
2022-09-05T16:35:33.254Z,34.00
2022-09-05T16:38:10.047Z,34.00
2022-09-05T16:40:41.982Z,33.70
2022-09-05T16:43:16.735Z,34.90
2022-09-05T16:45:49.223Z,33.60
2022-09-05T16:48:42.427Z,34.70
2022-09-05T16:51:28.737Z,34.20
2022-09-05T16:54:10.999Z,33.40
2022-09-05T16:56:42.857Z,33.30
2022-09-05T16:59:15.752Z,34.50
2022-09-05T17:02:07.522Z,33.20
2022-09-05T17:05:04.138Z,34.20
2022-09-05T17:07:46.086Z,36.10
2022-09-05T17:10:19.814Z,33.00
2022-09-05T17:12:52.244Z,32.90
2022-09-05T17:15:22.845Z,32.80
2022-09-05T17:18:19.377Z,32.70
2022-09-05T17:20:50.889Z,32.60
2022-09-05T17:28:30.013Z,32.60
2022-09-05T17:29:30.409Z,32.50
2022-09-05T17:29:45.781Z,32.40
2022-09-05T17:31:58.227Z,32.40
2022-09-05T17:34:47.833Z,35.50
2022-09-05T17:37:45.018Z,32.20
2022-09-05T17:40:42.662Z,32.10
2022-09-05T17:43:28.849Z,32.00
2022-09-05T17:46:13.006Z,31.90
2022-09-05T17:49:19.796Z,31.80
2022-09-05T17:52:22.763Z,33.50
2022-09-05T17:54:54.584Z,31.70
2022-09-05T17:57:41.618Z,31.60
2022-09-05T18:00:49.406Z,31.50
2022-09-05T18:04:17.359Z,31.50
2022-09-05T18:06:59.983Z,31.40
2022-09-05T18:10:12.688Z,32.90
2022-09-05T18:16:10.480Z,31.20
2022-09-05T18:19:32.598Z,31.20
2022-09-05T18:21:48.433Z,31.10
2022-09-05T18:24:33.285Z,31.00
2022-09-05T18:27:44.022Z,31.00
2022-09-05T18:30:09.680Z,33.90
2022-09-05T18:32:47.261Z,30.90
2022-09-05T18:35:37.751Z,30.80
2022-09-05T18:38:29.515Z,30.70
2022-09-05T18:41:18.234Z,30.70
2022-09-05T18:44:13.119Z,31.90
2022-09-05T18:46:46.419Z,30.60
2022-09-05T18:50:21.777Z,30.50
2022-09-05T18:52:16.890Z,30.40
2022-09-05T18:56:09.005Z,30.30
2022-09-05T18:57:49.298Z,30.20
2022-09-05T19:00:35.039Z,30.00
2022-09-05T19:03:18.235Z,30.00
2022-09-05T19:05:50.685Z,30.10
2022-09-05T19:08:29.023Z,30.10
2022-09-05T19:11:02.017Z,30.10
2022-09-05T19:13:54.167Z,30.10
2022-09-05T19:16:47.378Z,30.00
2022-09-05T19:19:18.365Z,30.00
2022-09-05T19:21:56.289Z,30.00
2022-09-05T19:24:44.871Z,29.90
2022-09-05T19:28:19.305Z,31.90
2022-09-05T19:36:57.983Z,31.50
2022-09-05T19:37:05.136Z,29.70
2022-09-05T19:37:15.394Z,30.10
2022-09-05T19:38:34.685Z,29.40
2022-09-05T19:47:30.782Z,29.30
2022-09-05T19:47:41.362Z,29.20
2022-09-05T19:47:47.447Z,29.20
2022-09-05T19:50:11.270Z,29.00
2022-09-05T19:52:40.313Z,29.00
2022-09-05T19:55:21.701Z,28.90
2022-09-05T19:57:56.925Z,28.90
2022-09-05T20:00:41.391Z,28.80
2022-09-05T20:03:09.664Z,28.80
2022-09-05T20:05:42.046Z,28.70
2022-09-05T20:08:14.075Z,28.60
2022-09-05T20:10:42.227Z,28.60
2022-09-05T20:13:24.309Z,28.60
2022-09-05T20:15:53.204Z,28.50
2022-09-05T20:18:23.237Z,28.40
2022-09-05T20:20:55.530Z,28.40
2022-09-05T20:23:25.482Z,30.80
2022-09-05T20:25:56.189Z,30.10
2022-09-05T20:28:26.435Z,28.40
2022-09-05T20:30:56.674Z,28.40
2022-09-05T20:33:28.419Z,30.10
2022-09-05T20:43:18.924Z,28.20
2022-09-05T20:43:23.235Z,28.20
2022-09-05T20:43:32.708Z,28.40
2022-09-05T20:44:48.206Z,29.80
2022-09-05T20:54:07.046Z,28.10
2022-09-05T20:54:14.690Z,28.00
2022-09-05T20:54:28.315Z,28.00
2022-09-05T20:56:03.392Z,27.90
2022-09-05T20:58:32.736Z,30.00
2022-09-05T21:01:20.401Z,29.00
2022-09-05T21:03:57.052Z,27.80
2022-09-05T21:06:29.446Z,30.10
2022-09-05T21:09:17.787Z,27.70
2022-09-05T21:11:54.150Z,27.60
2022-09-05T21:14:24.061Z,27.50
2022-09-05T21:16:59.254Z,27.40
2022-09-05T21:19:30.890Z,29.60
2022-09-05T21:22:06.797Z,27.90
2022-09-05T21:24:36.727Z,27.00
2022-09-05T21:27:17.292Z,26.80
2022-09-05T21:29:50.964Z,26.90
2022-09-05T21:32:37.818Z,27.60
2022-09-05T21:35:33.732Z,28.10
2022-09-05T21:38:01.542Z,26.50
2022-09-05T21:40:30.812Z,26.40
2022-09-05T21:46:19.020Z,26.30
2022-09-05T21:47:47.403Z,26.30
2022-09-05T21:48:38.999Z,26.10
2022-09-05T21:51:08.801Z,26.10
2022-09-05T21:57:01.793Z,26.00
2022-09-05T21:59:20.125Z,25.90
2022-09-05T21:59:36.891Z,25.90
2022-09-05T22:02:08.591Z,27.30
2022-09-05T22:04:40.900Z,25.80
2022-09-05T22:07:12.048Z,25.80
2022-09-05T22:09:39.957Z,25.70
2022-09-05T22:12:30.385Z,28.40
2022-09-05T22:14:57.858Z,25.70
2022-09-05T22:17:38.464Z,25.70
2022-09-05T22:20:08.062Z,25.60
2022-09-05T22:22:38.024Z,25.60
2022-09-05T22:25:09.403Z,25.50
2022-09-05T22:27:44.240Z,25.40
2022-09-05T22:30:13.542Z,25.30
2022-09-05T22:32:41.428Z,25.30
2022-09-05T22:35:16.039Z,25.40
2022-09-05T22:38:01.641Z,25.50
2022-09-05T22:40:31.457Z,25.50
2022-09-05T22:43:03.763Z,26.50
2022-09-05T22:45:33.600Z,25.50
2022-09-05T22:48:07.945Z,25.50
2022-09-05T22:50:36.799Z,25.50
2022-09-05T22:53:06.951Z,25.50
2022-09-05T22:55:35.185Z,25.50
2022-09-05T22:58:05.543Z,25.40
2022-09-05T23:00:34.493Z,25.50
2022-09-05T23:03:04.149Z,25.50
2022-09-05T23:05:32.203Z,25.40
2022-09-05T23:08:00.763Z,26.50
2022-09-05T23:10:29.943Z,25.40
2022-09-05T23:12:58.488Z,25.40
2022-09-05T23:15:27.800Z,28.20
2022-09-05T23:17:56.420Z,25.40
2022-09-05T23:20:26.271Z,25.40
2022-09-05T23:22:54.441Z,25.40
2022-09-05T23:25:23.290Z,26.10
2022-09-05T23:27:51.758Z,25.30
2022-09-05T23:30:20.311Z,25.20
2022-09-05T23:32:50.977Z,25.20
2022-09-05T23:35:19.972Z,27.40
2022-09-05T23:37:49.239Z,25.10
2022-09-05T23:40:20.042Z,25.10
2022-09-05T23:42:52.893Z,25.10
2022-09-05T23:45:21.028Z,24.90
2022-09-05T23:47:50.234Z,24.90
2022-09-05T23:50:18.554Z,28.30
2022-09-05T23:52:47.651Z,24.90
2022-09-05T23:55:18.138Z,27.20
2022-09-05T23:57:46.587Z,24.90
